KOXD/OXD METAR and TAF weather

Enter ICAO airport designator
Station Type Date Time Source
KOXD METAR 2021/01/17 19:35 UTC NOAA

KOXD 171935Z AUTO 25007KT 4SM -SN BKN007 BKN030 OVC060 01/01 A2970 RMK AO2 T00070007


Station Type Date Time Source
KOXD Decoded METAR 2021/01/17 19:35 UTC NOAA

Station name not available
Jan 17, 2021 - 02:35 PM EST / 2021.01.17 1935 UTC
Wind: from the WSW (250 degrees) at 8 MPH (7 KT):0
Visibility: 4 mile(s):0
Sky conditions: overcast
Weather: light snow
Temperature: 33.3 F (0.7 C)
Windchill: 26 F (-3 C):1
Dew Point: 33.3 F (0.7 C)
Relative Humidity: 100%
Pressure (altimeter): 29.7 in. Hg (1005 hPa)
ob: KOXD 171935Z AUTO 25007KT 4SM -SN BKN007 BKN030 OVC060 01/01 A2970 RMK AO2 T00070007
cycle: 19

Station Type Date Time Source
KOXD TAF UTC NOAA

Error!

Example: see airport list